Main page
METAR-TAF:

METAR-TAF

Airports :

Princess Juliana International Airport

Sint Maarten, Netherlands Antilles

latitude: 18-03N, longitude: 063-07W, elevation: 4 m

Current weather observation

The report was made 44 minutes ago, at 09:00 UTC
Wind 9 kt from the East/Northeast, varying between North/Northeast and East
Temperature 28°C
Humidity 70%
Pressure 1018 hPa
Visibility 10 km or more
Few clouds at a height of 1800 ft

METAR: TNCM 240900Z 06009KT 030V100 9999 FEW018 28/22 Q1018 A3007 RMK HZ ALQDS

Time: 05:44 (09:44 UTC)

Forecast

The report was made 4 hours and 3 minutes ago, at 05:41 UTC
Forecast valid from 24 at 06 UTC to 25 at 06 UTC
Wind 13 kt from the East
Visibility: 10 km
Scattered clouds at a height of 1800 ft
showers in vicinity

TAF: TNCM 240541Z 2406/2506 08013KT P6SM VCSH SCT018

Weather observations and forecasts of more than 4000 airports (METAR and TAF reports).

The available stations are represented by yellow and red dots on the map.

Hover mouse over dot to see the name of the station.

Then click to see weather observations and forecasts.

To change the map : click on the green buttons with a black cross to zoom in, on the green button with a dash to zoom out, or on the green arrows for adjacent maps.


METAR-TAF: